KAMN/AMN METAR and TAF weather

Enter ICAO airport designator
Station Type Date Time Source
KAMN METAR 2022/12/04 11:55 UTC NOAA

KAMN 041155Z AUTO 18006KT 10SM CLR M04/M07 A3017 RMK AO2 T10401073 11039 21057


Station Type Date Time Source
KAMN Decoded METAR 2022/12/04 11:55 UTC NOAA

Alma, Gratiot Community Airport, MI, United States (KAMN) 43-19-19N 084-41-16W
Dec 04, 2022 - 06:55 AM EST / 2022.12.04 1155 UTC
Wind: from the S (180 degrees) at 7 MPH (6 KT):0
Visibility: 10 mile(s):0
Sky conditions: clear
Temperature: 24.8 F (-4.0 C)
Windchill: 17 F (-8 C):1
Dew Point: 18.9 F (-7.3 C)
Relative Humidity: 77%
Pressure (altimeter): 30.17 in. Hg (1021 hPa)
ob: KAMN 041155Z AUTO 18006KT 10SM CLR M04/M07 A3017 RMK AO2 T10401073 11039 21057
cycle: 12

Station Type Date Time Source
KAMN TAF UTC NOAA

Error!

Example: see airport list